Hlavní strana
METAR-TAF:

METAR-TAF

Letiště :

Damašek, Sýrie

zeměpisná šířka: 33-25N, zeměpisná délka: 036-31E, výška: 608 m

Aktuální stav počasí

Zpráva byla vytvořena před 25 minutami, v 23:00 UTC
Východoseverovýchodní vítr 8 kt
Teplota 5°C
Vlhkost vzduchu 81%
Tlak 1018 hPa
Viditelnost 10 km a více
Žádná oblačnost pod 1500 m, nevyskytují se cumulonimby.

METAR: OSDI 222300Z 07008KT CAVOK 05/02 Q1018

Čas: 01:25 (23:25 UTC)

Předpověď počasí

Zpráva byla vytvořena před 6 hodinami a 25 minutami, v 17:00 UTC
Předpověď platná od 22 v 18 UTC do 23 v 24 UTC
Východní vítr 10 kt
Viditelnost 10 km a více
Skoro jasno ve výšce 3000 ft
Dočasný
od 22 v 20 UTC do 23 v 10 UTC
vítr z různých směrů 3 kt
Viditelnost: 7000 m

TAF: OSDI 221700Z 2218/2324 08010KT 9999 FEW030 TEMPO 2220/2310 VRB03KT 7000

Stav a předpovědi počasí z více než 4 000 letišť (zprávy METAR a TAF).

Červené a žluté tečky na mapě představují dostupné meteorologické stanice.

Když kurzor umístíte na tečku, zobrazí se název stanice.

Pak kliknutím zobrazíte stav a předpověď počasí.

Chcete-li změnit mapu, kliknutím na zelené tlačítko se znaménkem +mapu přiblížíte, kliknutím na zelené tlačítko se znaménkem – mapu oddálíte a kliknutím na zelené šipky přejdete na sousední mapy.


METAR-TAF: